createdAt,value
2017-12-16T00:00:14.300Z,72.70
2017-12-16T00:02:41.773Z,73.00
2017-12-16T00:05:09.322Z,73.50
2017-12-16T00:07:36.766Z,73.20
2017-12-16T00:10:04.343Z,73.10
2017-12-16T00:12:31.791Z,73.00
2017-12-16T00:14:59.862Z,73.00
2017-12-16T00:17:27.390Z,72.50
2017-12-16T00:19:54.950Z,72.60
2017-12-16T00:22:22.406Z,72.40
2017-12-16T00:24:50.428Z,72.00
2017-12-16T00:27:18.457Z,71.90
2017-12-16T00:29:46.653Z,72.60
2017-12-16T00:32:15.119Z,72.30
2017-12-16T00:34:42.656Z,71.90
2017-12-16T00:37:10.124Z,72.00
2017-12-16T00:39:37.596Z,72.10
2017-12-16T00:42:05.306Z,72.50
2017-12-16T00:44:34.028Z,72.60
2017-12-16T00:47:01.922Z,72.60
2017-12-16T00:49:29.394Z,72.60
2017-12-16T00:51:56.899Z,72.50
2017-12-16T00:54:24.767Z,72.70
2017-12-16T00:56:52.225Z,73.40
2017-12-16T00:59:19.762Z,73.70
2017-12-16T01:01:47.237Z,73.60
2017-12-16T01:04:15.037Z,73.60
2017-12-16T01:06:42.481Z,73.80
2017-12-16T01:09:09.957Z,74.00
2017-12-16T01:11:38.017Z,73.90
2017-12-16T01:14:05.981Z,74.00
2017-12-16T01:16:33.442Z,74.30
2017-12-16T01:19:00.917Z,74.70
2017-12-16T01:21:29.870Z,74.50
2017-12-16T01:23:57.437Z,74.50
2017-12-16T01:26:24.887Z,74.30
2017-12-16T01:28:52.712Z,74.20
2017-12-16T01:31:21.118Z,74.10
2017-12-16T01:34:00.718Z,74.10
2017-12-16T01:36:40.053Z,74.20
2017-12-16T01:39:08.677Z,74.10
2017-12-16T01:41:36.132Z,74.00
2017-12-16T01:44:03.693Z,74.00
2017-12-16T01:46:31.489Z,73.90
2017-12-16T01:48:59.456Z,73.70
2017-12-16T01:51:26.910Z,73.90
2017-12-16T01:53:54.582Z,74.10
2017-12-16T01:56:22.137Z,74.00
2017-12-16T01:58:49.997Z,74.00
2017-12-16T02:01:18.344Z,74.00
2017-12-16T02:03:45.772Z,74.00
2017-12-16T02:06:14.314Z,74.00
2017-12-16T02:08:41.758Z,74.00
2017-12-16T02:11:09.236Z,73.70
2017-12-16T02:13:37.083Z,73.90
2017-12-16T02:16:04.618Z,74.10
2017-12-16T02:18:32.101Z,74.30
2017-12-16T02:20:59.605Z,74.40
2017-12-16T02:23:27.908Z,74.20
2017-12-16T02:25:55.722Z,74.20
2017-12-16T02:28:23.439Z,74.30
2017-12-16T02:30:51.509Z,74.40
2017-12-16T02:33:19.477Z,74.50
2017-12-16T02:35:46.933Z,74.60
2017-12-16T02:38:14.495Z,74.50
2017-12-16T02:40:41.945Z,74.60
2017-12-16T02:43:09.415Z,74.80
2017-12-16T02:45:37.208Z,75.00
2017-12-16T02:48:05.170Z,75.00
2017-12-16T02:50:32.696Z,75.20
2017-12-16T02:53:00.150Z,75.00
2017-12-16T02:55:28.090Z,75.00
2017-12-16T02:57:56.319Z,74.90
2017-12-16T03:00:23.785Z,74.90
2017-12-16T03:02:51.240Z,75.10
2017-12-16T03:05:18.899Z,75.40
2017-12-16T03:07:46.358Z,75.50
2017-12-16T03:10:13.852Z,75.60
2017-12-16T03:12:42.135Z,75.70
2017-12-16T03:15:10.017Z,75.70
2017-12-16T03:17:37.719Z,75.70
2017-12-16T03:20:05.173Z,75.50
2017-12-16T03:22:32.639Z,75.50
2017-12-16T03:25:00.155Z,75.40
2017-12-16T03:27:27.956Z,75.30
2017-12-16T03:29:55.645Z,75.30
2017-12-16T03:32:24.165Z,75.60
2017-12-16T03:34:51.626Z,75.50
2017-12-16T03:37:19.179Z,75.30
2017-12-16T03:39:46.649Z,75.60
2017-12-16T03:42:14.091Z,75.60
2017-12-16T03:44:42.160Z,75.70
2017-12-16T03:47:10.260Z,75.60
2017-12-16T03:49:37.773Z,75.80
2017-12-16T03:52:05.329Z,75.80
2017-12-16T03:54:33.116Z,75.90
2017-12-16T03:57:00.569Z,76.00
2017-12-16T03:59:28.982Z,76.10
2017-12-16T04:01:56.684Z,76.40
2017-12-16T04:04:24.944Z,76.80
2017-12-16T04:06:53.160Z,76.90
2017-12-16T04:09:20.648Z,76.80
2017-12-16T04:11:48.123Z,76.80
2017-12-16T04:14:16.078Z,77.50
2017-12-16T04:16:43.600Z,77.60
2017-12-16T04:19:11.701Z,77.20
2017-12-16T04:21:39.241Z,76.70
2017-12-16T04:24:06.992Z,76.50
2017-12-16T04:26:34.458Z,75.90
2017-12-16T04:29:02.369Z,75.50
2017-12-16T04:31:30.020Z,75.50
2017-12-16T04:33:57.451Z,75.00
2017-12-16T04:36:25.238Z,74.60
2017-12-16T04:38:52.706Z,74.70
2017-12-16T04:41:21.669Z,74.50
2017-12-16T04:43:49.238Z,74.80
2017-12-16T04:46:17.097Z,74.80
2017-12-16T04:48:44.874Z,74.90
2017-12-16T04:51:12.325Z,74.90
2017-12-16T04:53:39.770Z,75.00
2017-12-16T04:56:07.337Z,75.00
2017-12-16T04:58:35.917Z,75.00
2017-12-16T05:01:03.354Z,75.30
2017-12-16T05:03:30.823Z,75.50
2017-12-16T05:05:59.437Z,76.20
2017-12-16T05:08:27.122Z,75.80
2017-12-16T05:10:55.454Z,75.70
2017-12-16T05:13:22.906Z,75.70
2017-12-16T05:15:50.901Z,76.00
2017-12-16T05:18:18.357Z,76.00
2017-12-16T05:20:45.829Z,75.90
2017-12-16T05:23:14.052Z,75.60
2017-12-16T05:25:42.065Z,75.60
2017-12-16T05:28:10.283Z,75.60
2017-12-16T05:30:38.320Z,75.60
2017-12-16T05:33:06.881Z,75.50
2017-12-16T05:35:34.342Z,75.40
2017-12-16T05:38:01.945Z,75.30
2017-12-16T05:40:30.120Z,75.40
2017-12-16T05:42:57.590Z,75.40
2017-12-16T05:45:25.029Z,75.40
2017-12-16T05:47:52.696Z,75.60
2017-12-16T05:50:20.120Z,75.60
2017-12-16T05:52:48.408Z,75.70
2017-12-16T05:55:16.798Z,75.70
2017-12-16T05:57:44.318Z,75.80
2017-12-16T06:00:11.797Z,76.00
2017-12-16T06:02:40.237Z,76.30
2017-12-16T06:05:07.997Z,76.20
2017-12-16T06:07:35.830Z,77.10
2017-12-16T06:10:03.330Z,76.50
2017-12-16T06:12:30.748Z,76.30
2017-12-16T06:14:58.631Z,76.40
2017-12-16T06:17:26.293Z,76.50
2017-12-16T06:19:53.873Z,76.70
2017-12-16T06:22:22.869Z,76.40
2017-12-16T06:24:50.634Z,76.30
2017-12-16T06:27:18.084Z,76.30
2017-12-16T06:29:46.043Z,76.30
2017-12-16T06:32:13.648Z,76.10
2017-12-16T06:34:41.130Z,76.00
2017-12-16T06:37:08.568Z,76.00
2017-12-16T06:39:36.483Z,76.00
2017-12-16T06:42:03.938Z,76.00
2017-12-16T06:44:31.468Z,75.90
2017-12-16T06:46:59.680Z,75.70
2017-12-16T06:49:27.129Z,75.70
2017-12-16T06:51:54.628Z,75.70
2017-12-16T06:54:22.943Z,75.50
2017-12-16T06:56:50.518Z,75.40
2017-12-16T06:59:17.991Z,75.10
2017-12-16T07:01:45.489Z,75.00
2017-12-16T07:04:12.921Z,74.90
2017-12-16T07:06:41.573Z,74.90
2017-12-16T07:09:09.431Z,74.90
2017-12-16T07:11:37.617Z,74.80
2017-12-16T07:14:05.477Z,74.70
2017-12-16T07:16:34.032Z,74.70
2017-12-16T07:19:01.584Z,74.60
2017-12-16T07:21:29.026Z,74.80
2017-12-16T07:23:56.526Z,74.80
2017-12-16T07:26:23.966Z,74.90
2017-12-16T07:28:51.966Z,74.90
2017-12-16T07:31:19.400Z,74.90
2017-12-16T07:33:46.860Z,75.10
2017-12-16T07:36:14.319Z,75.40
2017-12-16T07:38:41.938Z,75.40
2017-12-16T07:41:09.419Z,75.40
2017-12-16T07:43:36.858Z,75.50
2017-12-16T07:46:04.878Z,75.60
2017-12-16T07:48:32.847Z,75.60
2017-12-16T07:51:00.338Z,75.50
2017-12-16T07:53:29.185Z,75.50
2017-12-16T07:55:56.713Z,75.40
2017-12-16T07:58:24.517Z,75.20
2017-12-16T08:00:52.476Z,75.40
2017-12-16T08:03:20.007Z,75.50
2017-12-16T08:05:48.486Z,75.40
2017-12-16T08:08:16.269Z,75.70
2017-12-16T08:10:43.742Z,75.70
2017-12-16T08:13:11.213Z,75.80
2017-12-16T08:15:38.971Z,76.00
2017-12-16T08:18:07.755Z,76.10
2017-12-16T08:20:35.232Z,76.10
2017-12-16T08:23:02.737Z,76.10
2017-12-16T08:25:30.175Z,76.10
2017-12-16T08:27:57.673Z,76.20
2017-12-16T08:30:25.658Z,76.30
2017-12-16T08:32:53.526Z,76.50
2017-12-16T08:35:20.928Z,76.30
2017-12-16T08:37:48.400Z,76.50
2017-12-16T08:40:15.949Z,76.60
2017-12-16T08:42:43.508Z,76.20
2017-12-16T08:45:11.082Z,76.30
2017-12-16T08:47:38.760Z,76.20
2017-12-16T08:50:07.616Z,76.30
2017-12-16T08:52:35.309Z,76.30
2017-12-16T08:55:03.226Z,76.20
2017-12-16T08:57:30.840Z,76.30
2017-12-16T08:59:58.338Z,76.50
2017-12-16T09:02:26.602Z,77.00
2017-12-16T09:04:55.285Z,77.20
2017-12-16T09:07:22.759Z,77.20
2017-12-16T09:09:50.197Z,77.20
2017-12-16T09:12:18.431Z,77.30
2017-12-16T09:14:46.616Z,77.20
2017-12-16T09:17:14.551Z,76.90
2017-12-16T09:19:41.987Z,76.80
2017-12-16T09:22:10.010Z,76.80
2017-12-16T09:24:37.441Z,76.90
2017-12-16T09:27:04.911Z,76.70
2017-12-16T09:29:32.862Z,76.60
2017-12-16T09:32:00.419Z,76.40
2017-12-16T09:34:27.973Z,76.40
2017-12-16T09:36:55.980Z,76.60
2017-12-16T09:39:23.734Z,76.80
2017-12-16T09:41:51.179Z,76.80
2017-12-16T09:44:18.720Z,76.70
2017-12-16T09:46:46.717Z,75.90
2017-12-16T09:49:14.558Z,75.80
2017-12-16T09:51:42.524Z,76.00
2017-12-16T09:54:10.698Z,76.00
2017-12-16T09:56:38.158Z,75.40
2017-12-16T09:59:05.857Z,75.00
2017-12-16T10:01:33.311Z,74.80
2017-12-16T10:04:00.746Z,75.40
2017-12-16T10:06:28.697Z,75.40
2017-12-16T10:08:56.155Z,75.70
2017-12-16T10:11:23.628Z,76.40
2017-12-16T10:13:51.713Z,75.90
2017-12-16T10:16:19.187Z,75.30
2017-12-16T10:18:46.667Z,75.00
2017-12-16T10:21:14.135Z,74.90
2017-12-16T10:23:41.583Z,75.30
2017-12-16T10:26:09.201Z,75.80
2017-12-16T10:28:37.305Z,75.30
2017-12-16T10:31:05.519Z,74.00
2017-12-16T10:33:32.997Z,74.00
2017-12-16T10:36:00.454Z,73.90
2017-12-16T10:38:28.287Z,74.50
2017-12-16T10:40:55.769Z,73.90
2017-12-16T10:43:23.246Z,74.30
2017-12-16T10:45:50.684Z,73.50
2017-12-16T10:48:18.489Z,73.80
2017-12-16T10:50:47.193Z,74.10
2017-12-16T10:53:15.830Z,73.10
2017-12-16T10:55:43.280Z,73.10
2017-12-16T10:58:10.744Z,73.70
2017-12-16T11:00:38.211Z,73.50
2017-12-16T11:03:05.663Z,73.50
2017-12-16T11:05:33.410Z,73.60
2017-12-16T11:08:01.351Z,73.90
2017-12-16T11:10:28.813Z,73.20
2017-12-16T11:12:56.260Z,73.50
2017-12-16T11:15:24.274Z,73.60
2017-12-16T11:17:52.954Z,74.10
2017-12-16T11:20:20.478Z,73.60
2017-12-16T11:22:47.869Z,74.90
2017-12-16T11:25:15.696Z,72.70
2017-12-16T11:27:43.179Z,73.10
2017-12-16T11:30:11.137Z,71.80
2017-12-16T11:32:38.621Z,71.60
2017-12-16T11:35:06.114Z,71.90
2017-12-16T11:37:34.331Z,71.00
2017-12-16T11:40:02.206Z,70.90
2017-12-16T11:42:30.098Z,70.20
2017-12-16T11:44:57.880Z,67.20
2017-12-16T11:47:26.783Z,66.20
2017-12-16T11:49:54.358Z,66.20
2017-12-16T11:52:22.372Z,65.50
2017-12-16T11:54:51.135Z,66.30
2017-12-16T11:57:18.644Z,66.70
2017-12-16T11:59:47.156Z,67.40
2017-12-16T12:02:15.714Z,67.40
2017-12-16T12:04:44.076Z,66.70
2017-12-16T12:07:12.502Z,65.00
2017-12-16T12:09:40.897Z,65.30
2017-12-16T12:12:08.415Z,65.30
2017-12-16T12:14:36.430Z,63.70
2017-12-16T12:17:03.897Z,64.60
2017-12-16T12:19:31.619Z,64.80
2017-12-16T12:21:59.179Z,65.60
2017-12-16T12:24:26.895Z,66.20
2017-12-16T12:26:54.605Z,66.70
2017-12-16T12:29:23.734Z,67.00
2017-12-16T12:31:52.306Z,65.00
2017-12-16T12:34:20.249Z,65.00
2017-12-16T12:36:49.309Z,65.00
2017-12-16T12:39:18.157Z,64.40
2017-12-16T12:41:46.818Z,64.10
2017-12-16T12:44:14.849Z,64.10
2017-12-16T12:46:43.546Z,65.30
2017-12-16T12:49:12.170Z,65.40
2017-12-16T12:51:39.640Z,65.40
2017-12-16T12:54:07.526Z,66.00
2017-12-16T12:56:35.241Z,66.60
2017-12-16T12:59:03.095Z,66.30
2017-12-16T13:01:30.595Z,67.10
2017-12-16T13:03:58.433Z,67.20
2017-12-16T13:06:27.111Z,67.80
2017-12-16T13:08:54.795Z,68.00
2017-12-16T13:11:23.176Z,68.80
2017-12-16T13:13:51.358Z,68.90
2017-12-16T13:16:19.322Z,68.70
2017-12-16T13:18:47.584Z,68.70
2017-12-16T13:21:16.246Z,68.70
2017-12-16T13:23:43.967Z,68.60
2017-12-16T13:26:11.642Z,68.50
2017-12-16T13:28:40.398Z,69.60
2017-12-16T13:31:07.930Z,69.70
2017-12-16T13:33:35.379Z,69.20
2017-12-16T13:36:02.833Z,69.50
2017-12-16T13:38:30.297Z,68.70
2017-12-16T13:40:57.852Z,69.20
2017-12-16T13:43:25.411Z,69.30
2017-12-16T13:45:52.843Z,69.10
2017-12-16T13:48:21.284Z,69.30
2017-12-16T13:50:49.187Z,69.30
2017-12-16T13:53:16.818Z,69.50
2017-12-16T13:55:44.322Z,69.90
2017-12-16T13:58:11.908Z,70.30
2017-12-16T14:00:39.354Z,69.90
2017-12-16T14:03:06.834Z,69.60
2017-12-16T14:05:34.697Z,69.10
2017-12-16T14:08:02.535Z,68.90
2017-12-16T14:10:30.098Z,68.90
2017-12-16T14:12:57.548Z,68.90
2017-12-16T14:15:25.521Z,68.90
2017-12-16T14:17:53.080Z,68.90
2017-12-16T14:20:20.554Z,69.10
2017-12-16T14:22:48.073Z,69.00
2017-12-16T14:25:15.797Z,68.70
2017-12-16T14:27:43.238Z,69.10
2017-12-16T14:30:11.108Z,69.20
2017-12-16T14:32:38.587Z,69.20
2017-12-16T14:35:06.034Z,69.00
2017-12-16T14:37:34.451Z,68.50
2017-12-16T14:40:02.401Z,68.50
2017-12-16T14:42:32.183Z,69.00
2017-12-16T14:44:59.618Z,69.00
2017-12-16T14:47:27.594Z,68.90
2017-12-16T14:49:55.079Z,68.60
2017-12-16T14:52:23.026Z,68.90
2017-12-16T14:54:50.794Z,69.10
2017-12-16T14:57:19.003Z,69.50
2017-12-16T14:59:48.029Z,69.50
2017-12-16T15:02:15.457Z,69.40
2017-12-16T15:04:42.937Z,69.40
2017-12-16T15:07:10.370Z,69.50
2017-12-16T15:09:38.003Z,69.60
2017-12-16T15:12:05.443Z,69.40
2017-12-16T15:14:33.253Z,69.80
2017-12-16T15:17:00.716Z,69.70
2017-12-16T15:19:28.949Z,69.10
2017-12-16T15:21:56.385Z,69.20
2017-12-16T15:24:24.367Z,69.50
2017-12-16T15:26:51.925Z,69.70
2017-12-16T15:29:20.009Z,69.60
2017-12-16T15:31:47.476Z,69.20
2017-12-16T15:34:14.944Z,69.30
2017-12-16T15:36:43.159Z,70.00
2017-12-16T15:39:11.282Z,70.00
2017-12-16T15:41:39.652Z,70.20
2017-12-16T15:44:07.157Z,70.30
2017-12-16T15:46:34.613Z,70.70
2017-12-16T15:49:02.519Z,70.40
2017-12-16T15:51:29.987Z,71.00
2017-12-16T15:53:57.878Z,71.30
2017-12-16T15:56:26.128Z,70.80
2017-12-16T15:58:53.740Z,70.70
2017-12-16T16:01:21.194Z,70.90
2017-12-16T16:03:48.699Z,70.60
2017-12-16T16:06:16.146Z,70.30
2017-12-16T16:08:43.768Z,70.20
2017-12-16T16:11:12.560Z,70.10
2017-12-16T16:13:40.557Z,70.10
2017-12-16T16:16:08.012Z,70.30
2017-12-16T16:18:35.521Z,70.00
2017-12-16T16:21:04.178Z,69.80
2017-12-16T16:23:31.657Z,69.70
2017-12-16T16:26:00.944Z,69.60
2017-12-16T16:28:28.394Z,69.50
2017-12-16T16:30:58.148Z,70.30
2017-12-16T16:33:25.620Z,69.70
2017-12-16T16:35:53.264Z,69.40
2017-12-16T16:38:20.923Z,70.10
2017-12-16T16:40:48.566Z,70.40
2017-12-16T16:43:16.086Z,70.70
2017-12-16T16:45:43.590Z,70.70
2017-12-16T16:48:11.476Z,70.70
2017-12-16T16:50:40.169Z,71.00
2017-12-16T16:53:08.193Z,70.90
2017-12-16T16:55:43.502Z,70.90
2017-12-16T16:58:10.998Z,70.80
2017-12-16T17:00:39.300Z,72.00
2017-12-16T17:03:06.777Z,71.30
2017-12-16T17:05:34.329Z,71.50
2017-12-16T17:08:02.039Z,71.50
2017-12-16T17:10:29.993Z,71.20
2017-12-16T17:12:57.504Z,71.80
2017-12-16T17:15:25.459Z,71.70
2017-12-16T17:17:52.973Z,71.10
2017-12-16T17:20:20.481Z,70.60
2017-12-16T17:22:48.509Z,70.40
2017-12-16T17:25:17.756Z,70.70
2017-12-16T17:27:45.205Z,70.70
2017-12-16T17:30:13.119Z,70.60
2017-12-16T17:32:40.573Z,70.70
2017-12-16T17:35:08.057Z,71.00
2017-12-16T17:37:36.362Z,71.00
2017-12-16T17:40:03.823Z,71.00
2017-12-16T17:42:31.275Z,71.50
2017-12-16T17:44:58.917Z,71.50
2017-12-16T17:47:27.869Z,71.50
2017-12-16T17:49:56.821Z,71.80
2017-12-16T17:52:24.687Z,71.70
2017-12-16T17:54:52.492Z,72.00
2017-12-16T17:57:20.651Z,71.80
2017-12-16T17:59:48.088Z,71.80
2017-12-16T18:02:15.891Z,72.10
2017-12-16T18:04:43.402Z,72.30
2017-12-16T18:07:10.865Z,72.40
2017-12-16T18:09:38.315Z,72.20
2017-12-16T18:12:05.796Z,72.30
2017-12-16T18:14:33.874Z,72.20
2017-12-16T18:17:01.338Z,72.40
2017-12-16T18:19:28.857Z,72.40
2017-12-16T18:21:56.698Z,72.30
2017-12-16T18:24:25.136Z,73.30
2017-12-16T18:26:52.596Z,73.30
2017-12-16T18:29:20.489Z,73.80
2017-12-16T18:31:48.742Z,74.30
2017-12-16T18:34:16.214Z,74.30
2017-12-16T18:36:44.431Z,74.30
2017-12-16T18:39:11.990Z,74.20
2017-12-16T18:41:39.567Z,74.40
2017-12-16T18:44:07.415Z,74.50
2017-12-16T18:46:34.842Z,74.80
2017-12-16T18:49:03.479Z,74.30
2017-12-16T18:51:31.263Z,74.20
2017-12-16T18:53:59.016Z,74.40
2017-12-16T18:56:26.569Z,74.30
2017-12-16T18:58:54.004Z,74.20
2017-12-16T19:01:21.715Z,74.00
2017-12-16T19:03:49.202Z,74.40
2017-12-16T19:06:16.980Z,74.80
2017-12-16T19:08:44.781Z,74.10
2017-12-16T19:11:13.801Z,74.20
2017-12-16T19:13:42.003Z,74.20
2017-12-16T19:16:09.503Z,73.90
2017-12-16T19:18:36.953Z,73.30
2017-12-16T19:21:04.473Z,73.20
2017-12-16T19:23:31.978Z,73.20
2017-12-16T19:25:59.409Z,73.00
2017-12-16T19:28:26.932Z,73.00
2017-12-16T19:30:55.670Z,73.20
2017-12-16T19:33:23.111Z,73.20
2017-12-16T19:35:50.654Z,73.10
2017-12-16T19:38:18.116Z,73.20
2017-12-16T19:40:45.579Z,73.40
2017-12-16T19:43:13.578Z,73.30
2017-12-16T19:45:41.006Z,73.00
2017-12-16T19:48:09.036Z,72.70
2017-12-16T19:50:37.793Z,72.60
2017-12-16T19:53:05.549Z,72.60
2017-12-16T19:55:33.422Z,72.20
2017-12-16T19:58:00.881Z,72.70
2017-12-16T20:00:28.401Z,72.90
2017-12-16T20:02:55.913Z,73.00
2017-12-16T20:05:24.536Z,73.40
2017-12-16T20:07:52.144Z,73.40
2017-12-16T20:10:19.638Z,73.40
2017-12-16T20:12:47.155Z,73.30
2017-12-16T20:15:15.331Z,73.40
2017-12-16T20:17:42.777Z,73.50
2017-12-16T20:20:10.752Z,73.40
2017-12-16T20:22:38.193Z,73.60
2017-12-16T20:25:06.538Z,73.50
2017-12-16T20:27:34.131Z,73.40
2017-12-16T20:30:02.167Z,73.50
2017-12-16T20:32:31.258Z,73.60
2017-12-16T20:34:59.585Z,73.70
2017-12-16T20:37:27.099Z,73.70
2017-12-16T20:39:55.325Z,73.50
2017-12-16T20:42:22.769Z,73.70
2017-12-16T20:44:50.848Z,73.50
2017-12-16T20:47:18.800Z,73.50
2017-12-16T20:49:46.312Z,73.80
2017-12-16T20:52:13.764Z,73.70
2017-12-16T20:54:42.222Z,73.90
2017-12-16T20:57:10.539Z,74.00
2017-12-16T20:59:38.166Z,74.70
2017-12-16T21:02:06.478Z,74.30
2017-12-16T21:04:33.958Z,74.20
2017-12-16T21:07:01.537Z,74.00
2017-12-16T21:09:28.996Z,74.00
2017-12-16T21:11:56.747Z,74.20
2017-12-16T21:14:24.714Z,74.10
2017-12-16T21:16:52.176Z,74.30
2017-12-16T21:19:19.720Z,74.40
2017-12-16T21:21:47.795Z,74.50
2017-12-16T21:24:15.770Z,74.40
2017-12-16T21:26:43.211Z,74.10
2017-12-16T21:29:11.224Z,74.20
2017-12-16T21:31:39.431Z,74.40
2017-12-16T21:34:06.897Z,74.40
2017-12-16T21:36:34.857Z,74.60
2017-12-16T21:39:02.407Z,74.80
2017-12-16T21:41:29.857Z,75.20
2017-12-16T21:43:57.441Z,75.30
2017-12-16T21:46:24.896Z,75.40
2017-12-16T21:48:52.785Z,75.30
2017-12-16T21:51:20.234Z,74.90
2017-12-16T21:53:48.313Z,74.90
2017-12-16T21:56:15.905Z,75.10
2017-12-16T21:58:43.332Z,75.30
2017-12-16T22:01:10.785Z,75.50
2017-12-16T22:03:38.258Z,74.90
2017-12-16T22:06:06.278Z,74.90
2017-12-16T22:08:33.714Z,75.20
2017-12-16T22:11:01.258Z,75.10
2017-12-16T22:13:30.342Z,75.50
2017-12-16T22:15:58.560Z,75.00
2017-12-16T22:18:26.017Z,75.50
2017-12-16T22:20:53.687Z,74.90
2017-12-16T22:23:21.135Z,75.30
2017-12-16T22:25:48.964Z,75.30
2017-12-16T22:28:17.241Z,75.20
2017-12-16T22:30:46.115Z,75.00
2017-12-16T22:33:14.136Z,74.90
2017-12-16T22:35:41.591Z,74.90
2017-12-16T22:38:09.150Z,75.00
2017-12-16T22:40:36.624Z,75.20
2017-12-16T22:43:04.098Z,75.30
2017-12-16T22:45:31.557Z,75.60
2017-12-16T22:47:59.328Z,75.80
2017-12-16T22:50:26.914Z,75.90
2017-12-16T22:52:55.141Z,76.60
2017-12-16T22:55:22.934Z,76.00
2017-12-16T22:57:51.597Z,76.00
2017-12-16T23:00:19.065Z,76.20
2017-12-16T23:02:47.030Z,76.40
2017-12-16T23:05:14.965Z,76.50
2017-12-16T23:07:44.263Z,76.50
2017-12-16T23:10:11.801Z,76.60
2017-12-16T23:12:39.463Z,76.50
2017-12-16T23:15:07.651Z,76.60
2017-12-16T23:17:35.426Z,76.70
2017-12-16T23:20:02.977Z,76.60
2017-12-16T23:22:30.430Z,76.60
2017-12-16T23:24:58.144Z,76.60
2017-12-16T23:27:25.595Z,76.60
2017-12-16T23:29:53.557Z,76.60
2017-12-16T23:32:21.005Z,76.60
2017-12-16T23:34:48.482Z,76.70
2017-12-16T23:37:15.957Z,76.60
2017-12-16T23:39:44.161Z,76.60
2017-12-16T23:42:11.617Z,76.50
2017-12-16T23:44:39.093Z,76.60
2017-12-16T23:47:07.174Z,76.70
2017-12-16T23:49:34.644Z,76.70
2017-12-16T23:52:03.313Z,76.90
2017-12-16T23:54:31.693Z,77.10
2017-12-16T23:56:59.224Z,76.90
2017-12-16T23:59:26.679Z,76.40
